createdAt,value
2022-12-24T00:01:29.616Z,54.60
2022-12-24T00:03:57.453Z,61.30
2022-12-24T00:06:25.250Z,59.90
2022-12-24T00:08:53.307Z,64.30
2022-12-24T00:11:22.634Z,60.60
2022-12-24T00:13:50.464Z,56.90
2022-12-24T00:16:18.375Z,56.50
2022-12-24T00:18:47.100Z,58.50
2022-12-24T00:21:15.778Z,60.60
2022-12-24T00:23:43.804Z,60.20
2022-12-24T00:26:12.090Z,61.60
2022-12-24T00:28:41.305Z,64.90
2022-12-24T00:31:10.139Z,67.50
2022-12-24T00:33:38.026Z,69.00
2022-12-24T00:36:06.826Z,67.10
2022-12-24T00:38:34.632Z,65.90
2022-12-24T00:41:02.745Z,63.10
2022-12-24T00:43:30.711Z,59.50
2022-12-24T00:46:00.708Z,54.40
2022-12-24T00:48:28.556Z,50.40
2022-12-24T00:50:56.447Z,45.70
2022-12-24T00:53:24.303Z,40.50
2022-12-24T00:55:52.365Z,35.40
2022-12-24T00:58:20.153Z,28.60
2022-12-24T01:00:47.961Z,24.60
2022-12-24T01:03:17.672Z,25.00
2022-12-24T01:05:44.676Z,21.90
2022-12-24T01:08:12.501Z,16.50
2022-12-24T01:10:40.370Z,16.20
2022-12-24T01:13:08.178Z,11.90
2022-12-24T01:15:37.883Z,10.90
2022-12-24T01:18:05.759Z,12.80
2022-12-24T01:20:34.896Z,10.30
2022-12-24T01:23:02.713Z,12.10
2022-12-24T01:25:30.513Z,10.40
2022-12-24T01:27:59.372Z,9.70
2022-12-24T01:30:27.190Z,11.70
2022-12-24T01:32:55.009Z,12.40
2022-12-24T01:35:22.839Z,8.10
2022-12-24T01:37:52.060Z,10.50
2022-12-24T01:40:38.626Z,14.20
2022-12-24T01:43:24.258Z,15.90
2022-12-24T01:45:52.607Z,17.00
2022-12-24T01:48:34.622Z,18.80
2022-12-24T01:51:05.082Z,21.20
2022-12-24T01:53:35.787Z,23.20
2022-12-24T01:56:04.435Z,21.90
2022-12-24T01:58:33.552Z,21.40
2022-12-24T02:01:01.415Z,22.00
2022-12-24T02:03:29.279Z,19.00
2022-12-24T02:05:59.109Z,15.30
2022-12-24T02:08:39.800Z,17.20
2022-12-24T02:11:16.755Z,18.90
2022-12-24T02:13:46.021Z,15.20
2022-12-24T02:16:16.887Z,14.60
2022-12-24T02:18:48.718Z,14.10
2022-12-24T02:21:34.150Z,13.40
2022-12-24T02:24:30.653Z,16.60
2022-12-24T02:27:08.858Z,16.90
2022-12-24T02:29:52.085Z,14.70
2022-12-24T02:32:23.763Z,12.30
2022-12-24T02:34:55.052Z,15.80
2022-12-24T02:37:24.204Z,16.80
2022-12-24T02:39:53.850Z,16.10
2022-12-24T02:42:26.817Z,15.10
2022-12-24T02:44:57.676Z,16.80
2022-12-24T02:47:27.677Z,17.30
2022-12-24T02:49:55.506Z,13.20
2022-12-24T02:52:30.083Z,12.80
2022-12-24T02:54:58.567Z,10.30
2022-12-24T02:57:29.887Z,9.30
2022-12-24T03:00:01.339Z,7.90
2022-12-24T03:02:36.473Z,5.90
2022-12-24T03:05:09.744Z,5.10
2022-12-24T03:07:39.725Z,2.90
2022-12-24T03:10:20.134Z,1.00
2022-12-24T03:12:49.860Z,1.00
2022-12-24T03:15:20.691Z,1.00
2022-12-24T03:17:50.340Z,1.00
2022-12-24T03:20:20.244Z,1.00
2022-12-24T03:22:48.086Z,1.00
2022-12-24T03:25:16.597Z,1.00
2022-12-24T03:27:44.808Z,1.00
2022-12-24T03:30:14.042Z,1.00
2022-12-24T03:32:43.238Z,1.00
2022-12-24T03:35:11.455Z,1.00
2022-12-24T03:37:39.296Z,1.00
2022-12-24T03:40:07.751Z,1.00
2022-12-24T03:42:35.571Z,1.00
2022-12-24T03:45:03.408Z,1.00
2022-12-24T03:47:32.051Z,1.00
2022-12-24T03:50:01.261Z,1.00
2022-12-24T03:52:29.318Z,1.00
2022-12-24T03:54:57.133Z,1.00
2022-12-24T03:57:25.477Z,1.00
2022-12-24T03:59:53.275Z,1.00
2022-12-24T04:02:21.267Z,1.00
2022-12-24T04:04:49.197Z,1.00
2022-12-24T04:07:18.329Z,1.00
2022-12-24T04:09:46.165Z,1.00
2022-12-24T04:12:14.072Z,1.00
2022-12-24T04:14:41.887Z,1.00
2022-12-24T04:17:09.752Z,1.00
2022-12-24T04:19:37.557Z,1.00
2022-12-24T04:22:05.358Z,1.00
2022-12-24T04:24:34.522Z,1.00
2022-12-24T04:27:02.425Z,1.00
2022-12-24T04:29:30.309Z,1.00
2022-12-24T04:31:58.190Z,1.00
2022-12-24T04:34:26.023Z,1.00
2022-12-24T04:36:53.818Z,1.00
2022-12-24T04:39:21.631Z,1.00
2022-12-24T04:41:50.773Z,1.00
2022-12-24T04:44:18.582Z,1.00
2022-12-24T04:46:46.372Z,1.00
2022-12-24T04:49:14.180Z,1.00
2022-12-24T04:51:42.004Z,1.00
2022-12-24T04:54:09.821Z,1.00
2022-12-24T04:56:37.782Z,1.00
2022-12-24T04:59:07.003Z,1.00
2022-12-24T05:01:34.921Z,1.00
2022-12-24T05:04:02.792Z,1.00
2022-12-24T05:06:31.472Z,1.00
2022-12-24T05:08:59.760Z,1.00
2022-12-24T05:11:27.870Z,1.00
2022-12-24T05:13:55.696Z,1.00
2022-12-24T05:16:25.722Z,1.00
2022-12-24T05:18:53.829Z,1.00
2022-12-24T05:21:22.673Z,1.00
2022-12-24T05:24:08.119Z,1.00
2022-12-24T05:26:37.052Z,1.00
2022-12-24T05:29:05.113Z,1.00
2022-12-24T05:31:36.005Z,1.00
2022-12-24T05:34:04.037Z,1.00
2022-12-24T05:36:31.945Z,1.00
2022-12-24T05:38:59.892Z,1.00
2022-12-24T05:41:27.917Z,1.00
2022-12-24T05:43:56.160Z,1.00
2022-12-24T05:46:24.654Z,1.00
2022-12-24T05:48:54.047Z,1.00
2022-12-24T05:51:23.147Z,1.00
2022-12-24T05:53:51.582Z,1.00
2022-12-24T05:56:20.574Z,1.00
2022-12-24T05:58:48.671Z,1.00
2022-12-24T06:01:17.098Z,1.00
2022-12-24T06:03:45.068Z,1.00
2022-12-24T06:06:15.707Z,1.00
2022-12-24T06:08:43.616Z,1.00
2022-12-24T06:11:12.526Z,1.00
2022-12-24T06:13:40.518Z,1.00
2022-12-24T06:16:09.456Z,1.00
2022-12-24T06:18:37.591Z,1.00
2022-12-24T06:21:06.361Z,1.00
2022-12-24T06:23:37.027Z,1.00
2022-12-24T06:26:05.727Z,1.00
2022-12-24T06:28:34.898Z,1.00
2022-12-24T06:31:03.960Z,1.00
2022-12-24T06:33:32.333Z,1.00
2022-12-24T06:36:00.295Z,1.00
2022-12-24T06:38:28.113Z,1.00
2022-12-24T06:40:57.323Z,1.00
2022-12-24T06:43:25.157Z,1.00
2022-12-24T06:45:53.605Z,1.00
2022-12-24T06:48:21.954Z,1.00
2022-12-24T06:50:49.758Z,1.00
2022-12-24T06:53:17.595Z,1.00
2022-12-24T06:55:45.400Z,1.00
2022-12-24T06:58:14.561Z,1.00
2022-12-24T07:00:42.393Z,1.00
2022-12-24T07:03:10.270Z,1.00
2022-12-24T07:05:38.087Z,1.00
2022-12-24T07:08:06.196Z,1.00
2022-12-24T07:10:34.923Z,1.00
2022-12-24T07:13:02.761Z,1.00
2022-12-24T07:15:31.972Z,1.00
2022-12-24T07:17:59.771Z,1.00
2022-12-24T07:20:27.562Z,1.00
2022-12-24T07:22:55.434Z,1.00
2022-12-24T07:25:23.235Z,1.00
2022-12-24T07:27:51.104Z,1.00
2022-12-24T07:30:19.017Z,1.00
2022-12-24T07:32:48.174Z,1.00
2022-12-24T07:35:16.058Z,1.00
2022-12-24T07:37:43.890Z,1.00
2022-12-24T07:40:11.924Z,1.00
2022-12-24T07:42:39.734Z,1.00
2022-12-24T07:45:08.225Z,1.00
2022-12-24T07:47:36.229Z,1.00
2022-12-24T07:50:05.852Z,1.00
2022-12-24T07:52:33.811Z,1.00
2022-12-24T07:55:01.677Z,1.00
2022-12-24T07:57:29.572Z,1.00
2022-12-24T07:59:57.389Z,1.00
2022-12-24T08:02:25.416Z,1.00
2022-12-24T08:04:53.320Z,1.00
2022-12-24T08:07:22.513Z,1.00
2022-12-24T08:09:50.340Z,1.00
2022-12-24T08:12:18.218Z,1.00
2022-12-24T08:14:46.078Z,1.00
2022-12-24T08:17:13.893Z,1.00
2022-12-24T08:19:41.737Z,1.00
2022-12-24T08:22:09.537Z,1.00
2022-12-24T08:24:38.673Z,1.00
2022-12-24T08:27:06.493Z,1.00
2022-12-24T08:29:34.351Z,1.00
2022-12-24T08:32:02.274Z,1.00
2022-12-24T08:34:30.216Z,1.00
2022-12-24T08:36:58.034Z,1.00
2022-12-24T08:39:26.187Z,1.00
2022-12-24T08:41:55.353Z,1.00
2022-12-24T08:44:23.135Z,1.00
2022-12-24T08:46:50.936Z,1.00
2022-12-24T08:49:18.764Z,1.00
2022-12-24T08:51:46.541Z,1.00
2022-12-24T08:54:14.304Z,1.00
2022-12-24T08:56:42.155Z,1.00
2022-12-24T08:59:11.787Z,1.00
2022-12-24T09:01:39.845Z,1.00
2022-12-24T09:04:07.762Z,1.00
2022-12-24T09:06:35.553Z,1.00
2022-12-24T09:09:03.395Z,1.00
2022-12-24T09:11:31.704Z,1.00
2022-12-24T09:13:59.482Z,1.00
2022-12-24T09:16:28.813Z,1.00
2022-12-24T09:18:57.620Z,1.00
2022-12-24T09:21:25.425Z,1.00
2022-12-24T09:23:53.211Z,1.00
2022-12-24T09:26:22.061Z,1.00
2022-12-24T09:28:50.309Z,1.00
2022-12-24T09:31:18.410Z,1.00
2022-12-24T09:33:48.399Z,1.00
2022-12-24T09:36:16.302Z,1.00
2022-12-24T09:38:44.153Z,1.00
2022-12-24T09:41:13.151Z,1.00
2022-12-24T09:43:41.294Z,1.00
2022-12-24T09:46:13.166Z,1.00
2022-12-24T09:48:42.794Z,1.00
2022-12-24T09:51:13.089Z,1.00
2022-12-24T09:53:42.196Z,1.00
2022-12-24T09:56:13.546Z,1.00
2022-12-24T09:58:43.060Z,1.00
2022-12-24T10:01:12.898Z,1.00
2022-12-24T10:03:41.070Z,1.00
2022-12-24T10:06:11.400Z,1.00
2022-12-24T10:08:46.989Z,1.00
2022-12-24T10:11:18.393Z,1.00
2022-12-24T10:13:51.761Z,1.00
2022-12-24T10:16:23.836Z,1.00
2022-12-24T10:18:56.546Z,1.00
2022-12-24T10:21:27.599Z,1.00
2022-12-24T10:24:00.464Z,1.00
2022-12-24T10:26:29.540Z,1.00
2022-12-24T10:28:58.841Z,1.00
2022-12-24T10:31:28.036Z,1.00
2022-12-24T10:33:57.986Z,1.00
2022-12-24T10:36:28.370Z,1.00
2022-12-24T10:38:57.938Z,1.00
2022-12-24T10:41:26.773Z,1.00
2022-12-24T10:43:55.263Z,1.00
2022-12-24T10:46:24.065Z,1.00
2022-12-24T10:48:53.878Z,1.00
2022-12-24T10:51:23.450Z,1.00
2022-12-24T10:53:53.089Z,1.00
2022-12-24T10:56:22.298Z,1.00
2022-12-24T10:58:52.696Z,1.00
2022-12-24T11:01:20.714Z,1.00
2022-12-24T11:04:00.781Z,1.00
2022-12-24T11:06:28.557Z,1.00
2022-12-24T11:09:13.055Z,1.00
2022-12-24T11:11:42.503Z,1.00
2022-12-24T11:14:15.343Z,1.00
2022-12-24T11:16:49.543Z,1.00
2022-12-24T11:19:19.127Z,1.00
2022-12-24T11:21:46.955Z,1.00
2022-12-24T11:24:23.331Z,1.00
2022-12-24T11:26:52.522Z,1.00
2022-12-24T11:29:21.883Z,1.00
2022-12-24T11:31:50.391Z,1.00
2022-12-24T11:34:19.660Z,1.00
2022-12-24T11:36:47.587Z,1.00
2022-12-24T11:39:19.714Z,1.00
2022-12-24T11:41:47.761Z,1.00
2022-12-24T11:44:17.006Z,1.00
2022-12-24T11:46:47.142Z,1.00
2022-12-24T11:49:17.189Z,1.00
2022-12-24T11:51:59.921Z,1.00
2022-12-24T11:54:29.594Z,1.00
2022-12-24T11:56:59.611Z,1.00
2022-12-24T11:59:31.520Z,1.00
2022-12-24T12:02:01.277Z,1.00
2022-12-24T12:04:30.724Z,1.00
2022-12-24T12:07:00.348Z,3.40
2022-12-24T12:09:31.367Z,7.20
2022-12-24T12:12:02.140Z,9.70
2022-12-24T12:14:33.037Z,15.10
2022-12-24T12:17:03.867Z,18.00
2022-12-24T12:19:36.825Z,18.50
2022-12-24T12:22:06.209Z,22.70
2022-12-24T12:24:35.745Z,25.90
2022-12-24T12:27:06.199Z,31.50
2022-12-24T12:29:37.308Z,30.00
2022-12-24T12:32:07.394Z,37.30
2022-12-24T12:34:39.064Z,37.90
2022-12-24T12:37:14.706Z,38.10
2022-12-24T12:39:43.389Z,32.30
2022-12-24T12:42:15.500Z,29.60
2022-12-24T12:45:00.275Z,31.80
2022-12-24T12:47:35.781Z,30.30
2022-12-24T12:50:08.617Z,35.10
2022-12-24T12:52:42.098Z,34.50
2022-12-24T12:55:24.350Z,35.60
2022-12-24T12:57:56.377Z,33.40
2022-12-24T13:00:25.598Z,38.90
2022-12-24T13:03:04.197Z,34.40
2022-12-24T13:05:59.278Z,39.00
2022-12-24T13:08:39.956Z,33.30
2022-12-24T13:11:14.540Z,29.70
2022-12-24T13:13:54.032Z,21.60
2022-12-24T13:16:32.198Z,14.80
2022-12-24T13:19:05.500Z,10.40
2022-12-24T13:21:34.089Z,7.00
2022-12-24T13:24:09.003Z,7.20
2022-12-24T13:26:36.785Z,5.80
2022-12-24T13:29:28.573Z,1.00
2022-12-24T13:32:18.869Z,1.00
2022-12-24T13:34:50.127Z,1.00
2022-12-24T13:37:21.716Z,1.00
2022-12-24T13:40:02.626Z,1.00
2022-12-24T13:42:50.946Z,1.00
2022-12-24T13:45:37.699Z,1.00
2022-12-24T13:48:15.062Z,1.00
2022-12-24T13:50:45.400Z,1.00
2022-12-24T13:53:22.337Z,1.00
2022-12-24T13:55:51.822Z,1.00
2022-12-24T13:58:21.671Z,1.00
2022-12-24T14:00:54.302Z,1.00
2022-12-24T14:03:25.234Z,1.00
2022-12-24T14:05:56.273Z,1.00
2022-12-24T14:08:29.117Z,1.00
2022-12-24T14:11:04.283Z,1.00
2022-12-24T14:13:46.993Z,1.00
2022-12-24T14:16:16.388Z,1.00
2022-12-24T14:18:45.170Z,1.00
2022-12-24T14:21:18.608Z,1.00
2022-12-24T14:23:52.348Z,1.00
2022-12-24T14:26:21.763Z,1.00
2022-12-24T14:28:54.909Z,1.00
2022-12-24T14:31:23.281Z,1.00
2022-12-24T14:33:51.190Z,1.00
2022-12-24T14:36:22.578Z,1.00
2022-12-24T14:38:50.816Z,1.00
2022-12-24T14:41:26.896Z,1.00
2022-12-24T14:43:58.170Z,1.00
2022-12-24T14:46:32.762Z,1.00
2022-12-24T14:49:05.539Z,1.00
2022-12-24T14:51:37.010Z,1.00
2022-12-24T14:54:27.039Z,1.00
2022-12-24T14:57:08.048Z,1.00
2022-12-24T14:59:41.447Z,1.00
2022-12-24T15:02:22.782Z,1.00
2022-12-24T15:05:03.454Z,1.00
2022-12-24T15:07:34.317Z,1.00
2022-12-24T15:10:02.998Z,1.00
2022-12-24T15:12:31.470Z,1.00
2022-12-24T15:14:59.368Z,1.00
2022-12-24T15:17:28.011Z,1.00
2022-12-24T15:19:58.148Z,1.00
2022-12-24T15:22:27.436Z,1.00
2022-12-24T15:24:56.725Z,1.00
2022-12-24T15:27:25.534Z,1.00
2022-12-24T15:29:53.924Z,1.00
2022-12-24T15:32:22.147Z,1.00
2022-12-24T15:34:51.217Z,1.00
2022-12-24T15:37:20.285Z,1.00
2022-12-24T15:39:54.218Z,1.00
2022-12-24T15:42:24.587Z,1.00
2022-12-24T15:44:58.611Z,1.00
2022-12-24T15:47:28.365Z,1.00
2022-12-24T15:49:56.527Z,1.00
2022-12-24T15:52:25.274Z,1.00
2022-12-24T15:54:58.179Z,1.00
2022-12-24T15:57:31.304Z,1.00
2022-12-24T15:59:59.963Z,1.00
2022-12-24T16:02:39.203Z,1.00
2022-12-24T16:05:34.279Z,1.00
2022-12-24T16:08:09.462Z,1.00
2022-12-24T16:10:39.917Z,1.00
2022-12-24T16:13:17.330Z,1.00
2022-12-24T16:15:49.662Z,1.00
2022-12-24T16:18:19.273Z,1.00
2022-12-24T16:20:48.636Z,1.00
2022-12-24T16:23:20.282Z,1.00
2022-12-24T16:25:48.091Z,1.00
2022-12-24T16:28:22.121Z,2.00
2022-12-24T16:30:51.035Z,2.90
2022-12-24T16:33:19.992Z,3.20
2022-12-24T16:35:48.103Z,4.90
2022-12-24T16:38:15.938Z,4.30
2022-12-24T16:40:44.133Z,5.30
2022-12-24T16:43:29.543Z,2.70
2022-12-24T16:46:01.433Z,4.20
2022-12-24T16:48:29.547Z,1.00
2022-12-24T16:50:57.611Z,1.00
2022-12-24T16:53:25.401Z,1.00
2022-12-24T16:55:53.431Z,1.00
2022-12-24T16:58:21.554Z,1.00
2022-12-24T17:00:49.375Z,1.00
2022-12-24T17:03:18.640Z,1.00
2022-12-24T17:05:46.529Z,1.00
2022-12-24T17:08:14.767Z,1.00
2022-12-24T17:10:50.462Z,2.40
2022-12-24T17:13:18.316Z,1.30
2022-12-24T17:15:46.201Z,1.30
2022-12-24T17:18:14.100Z,3.00
2022-12-24T17:20:43.267Z,1.00
2022-12-24T17:23:11.165Z,2.80
2022-12-24T17:25:38.967Z,3.40
2022-12-24T17:28:06.763Z,4.20
2022-12-24T17:30:34.575Z,7.60
2022-12-24T17:33:02.374Z,8.30
2022-12-24T17:35:30.231Z,7.10
2022-12-24T17:37:59.939Z,7.50
2022-12-24T17:40:27.715Z,9.90
2022-12-24T17:42:55.467Z,7.90
2022-12-24T17:45:23.268Z,7.20
2022-12-24T17:47:51.091Z,9.60
2022-12-24T17:50:18.920Z,12.50
2022-12-24T17:52:46.774Z,12.50
2022-12-24T17:55:16.011Z,11.40
2022-12-24T17:57:43.832Z,10.40
2022-12-24T18:00:12.191Z,13.60
2022-12-24T18:02:40.114Z,11.40
2022-12-24T18:05:08.278Z,14.00
2022-12-24T18:07:36.209Z,19.40
2022-12-24T18:10:04.699Z,17.40
2022-12-24T18:12:33.889Z,15.60
2022-12-24T18:15:01.700Z,18.20
2022-12-24T18:17:29.521Z,16.30
2022-12-24T18:19:57.335Z,15.50
2022-12-24T18:22:25.150Z,14.90
2022-12-24T18:24:52.981Z,14.10
2022-12-24T18:27:20.855Z,14.70
2022-12-24T18:29:50.247Z,13.90
2022-12-24T18:32:18.079Z,14.60
2022-12-24T18:34:45.877Z,12.70
2022-12-24T18:37:13.727Z,15.60
2022-12-24T18:39:41.535Z,14.10
2022-12-24T18:42:14.284Z,14.80
2022-12-24T18:44:42.143Z,14.30
2022-12-24T18:47:11.576Z,16.20
2022-12-24T18:49:39.432Z,16.80
2022-12-24T18:52:07.765Z,18.00
2022-12-24T18:54:35.647Z,17.20
2022-12-24T18:57:03.536Z,15.80
2022-12-24T18:59:31.386Z,15.10
2022-12-24T19:01:59.412Z,20.10
2022-12-24T19:04:28.794Z,19.70
2022-12-24T19:06:56.692Z,20.80
2022-12-24T19:09:24.506Z,19.90
2022-12-24T19:11:52.351Z,18.60
2022-12-24T19:14:20.853Z,18.00
2022-12-24T19:16:48.802Z,14.90
2022-12-24T19:19:18.732Z,16.70
2022-12-24T19:21:47.891Z,17.20
2022-12-24T19:24:15.761Z,16.20
2022-12-24T19:26:43.565Z,15.70
2022-12-24T19:29:11.353Z,16.60
2022-12-24T19:31:39.202Z,18.20
2022-12-24T19:34:07.129Z,18.40
2022-12-24T19:36:35.377Z,17.60
2022-12-24T19:39:04.649Z,16.30
2022-12-24T19:41:32.490Z,16.90
2022-12-24T19:44:02.993Z,20.60
2022-12-24T19:46:32.103Z,21.90
2022-12-24T19:49:00.592Z,22.80
2022-12-24T19:51:29.140Z,22.50
2022-12-24T19:53:57.588Z,19.00
2022-12-24T19:56:28.565Z,18.80
2022-12-24T19:58:57.266Z,17.60
2022-12-24T20:01:26.126Z,18.00
2022-12-24T20:03:54.516Z,18.20
2022-12-24T20:06:23.640Z,19.70
2022-12-24T20:08:51.497Z,16.40
2022-12-24T20:11:20.538Z,14.80
2022-12-24T20:13:49.815Z,14.20
2022-12-24T20:16:19.114Z,15.90
2022-12-24T20:18:51.427Z,16.50
2022-12-24T20:21:19.232Z,17.80
2022-12-24T20:23:47.071Z,18.30
2022-12-24T20:26:16.005Z,24.00
2022-12-24T20:28:44.210Z,20.30
2022-12-24T20:31:14.261Z,20.30
2022-12-24T20:33:42.609Z,20.00
2022-12-24T20:36:10.955Z,19.20
2022-12-24T20:38:38.777Z,20.30
2022-12-24T20:41:09.575Z,20.00
2022-12-24T20:43:45.124Z,19.80
2022-12-24T20:46:17.274Z,19.80
2022-12-24T20:48:45.276Z,21.70
2022-12-24T20:51:19.358Z,27.30
2022-12-24T20:53:51.438Z,22.70
2022-12-24T20:56:19.282Z,22.70
2022-12-24T20:58:47.111Z,24.90
2022-12-24T21:01:16.625Z,23.10
2022-12-24T21:03:46.295Z,25.60
2022-12-24T21:06:15.562Z,26.50
2022-12-24T21:08:43.707Z,27.90
2022-12-24T21:11:28.276Z,28.70
2022-12-24T21:13:56.088Z,29.10
2022-12-24T21:16:23.993Z,30.60
2022-12-24T21:18:53.344Z,31.80
2022-12-24T21:21:21.213Z,34.70
2022-12-24T21:23:49.036Z,34.90
2022-12-24T21:26:16.860Z,35.70
2022-12-24T21:28:45.423Z,34.30
2022-12-24T21:31:14.699Z,35.80
2022-12-24T21:33:42.587Z,36.00
2022-12-24T21:36:12.201Z,37.60
2022-12-24T21:38:40.092Z,38.50
2022-12-24T21:41:09.125Z,40.20
2022-12-24T21:43:37.398Z,38.80
2022-12-24T21:46:06.937Z,40.20
2022-12-24T21:48:52.339Z,40.20
2022-12-24T21:51:21.524Z,42.30
2022-12-24T21:54:06.874Z,40.00
2022-12-24T21:56:55.519Z,40.10
2022-12-24T21:59:26.596Z,44.80
2022-12-24T22:01:55.827Z,46.60
2022-12-24T22:04:24.142Z,51.20
2022-12-24T22:07:10.698Z,50.00
2022-12-24T22:09:56.318Z,50.20
2022-12-24T22:12:24.172Z,50.40
2022-12-24T22:14:51.992Z,48.10
2022-12-24T22:17:24.788Z,51.90
2022-12-24T22:19:53.547Z,53.60
2022-12-24T22:22:23.301Z,52.80
2022-12-24T22:24:51.124Z,53.50
2022-12-24T22:27:18.936Z,57.40
2022-12-24T22:29:46.788Z,54.80
2022-12-24T22:32:14.629Z,53.80
2022-12-24T22:34:42.476Z,53.00
2022-12-24T22:37:10.295Z,56.00
2022-12-24T22:39:40.048Z,57.60
2022-12-24T22:42:07.940Z,57.50
2022-12-24T22:44:35.763Z,58.00
2022-12-24T22:47:03.560Z,57.30
2022-12-24T22:49:31.485Z,57.60
2022-12-24T22:51:59.528Z,58.10
2022-12-24T22:54:27.326Z,60.90
2022-12-24T22:56:56.525Z,58.70
2022-12-24T22:59:24.320Z,58.40
2022-12-24T23:01:53.701Z,57.90
2022-12-24T23:04:21.684Z,61.90
2022-12-24T23:06:49.633Z,58.90
2022-12-24T23:09:17.882Z,59.00
2022-12-24T23:11:45.991Z,62.20
2022-12-24T23:14:34.658Z,60.20
2022-12-24T23:17:02.483Z,60.60
2022-12-24T23:19:31.856Z,58.10
2022-12-24T23:21:59.728Z,58.90
2022-12-24T23:24:27.705Z,58.90
2022-12-24T23:26:55.581Z,58.30
2022-12-24T23:29:25.813Z,58.20
2022-12-24T23:31:53.624Z,62.60
2022-12-24T23:34:21.397Z,62.90
2022-12-24T23:36:49.221Z,64.80
2022-12-24T23:39:17.079Z,65.30
2022-12-24T23:41:44.885Z,64.90
2022-12-24T23:44:12.783Z,65.00
2022-12-24T23:46:42.033Z,70.70
2022-12-24T23:49:12.642Z,69.00
2022-12-24T23:51:40.459Z,68.20
2022-12-24T23:54:08.246Z,70.10
2022-12-24T23:56:36.060Z,70.80
2022-12-24T23:59:03.981Z,69.80
